Terminal Aerodrome Forecast
Issued by NWS

Home | Current Version | Previous Version | Text Only | Print | Product List | Glossary On
Versions: 1 2 3 4 5 6 7 8 9 10 11 12 13 14 15 16 17
000
FTUS44 KTSA 230600 AAA
TAFXNA
TAF AMD
KXNA 230611Z 2306/2406 VRB03KT 4SM BR FEW120
     FM230900 17004KT P6SM VCTS SCT050CB SCT120
     FM231800 35005KT P6SM VCTS SCT050CB SCT250 PROB30 2318/2324 6SM
      -TSRA BKN035CB
     FM240100 VRB03KT P6SM SCT250=

USA.gov is the U.S. government's official web portal to all federal, state and local government web resources and services.